Time;durP1;ratioP1;P1;durP2;ratioP2;P2;SDS_P1;SDS_P2;PMS_P1;PMS_P2;Temp;Humidity;BMP_temperature;BMP_pressure;BME280_temperature;BME280_humidity;BME280_pressure;Samples;Min_cycle;Max_cycle;Signal;HPM_P1;HPM_P2
2022/03/14 00:02:17;;;;;;;11.32;9.63;;;;;;;;;;5063297;28;20255;-68
2022/03/14 00:04:43;;;;;;;11.45;9.60;;;;;;;;;;5063215;28;20521;-68
2022/03/14 00:07:10;;;;;;;11.88;9.40;;;;;;;;;;5063009;28;20217;-68
2022/03/14 00:09:36;;;;;;;12.68;9.55;;;;;;;;;;5062961;28;20505;-68
2022/03/14 00:12:04;;;;;;;13.20;9.48;;;;;;;;;;5063340;28;20393;-68
2022/03/14 00:14:32;;;;;;;12.23;9.50;;;;;;;;;;5063016;28;20362;-68
2022/03/14 00:16:59;;;;;;;12.15;9.45;;;;;;;;;;5062644;28;20201;-68
2022/03/14 00:19:25;;;;;;;11.18;9.52;;;;;;;;;;5062836;28;20208;-68
2022/03/14 00:21:51;;;;;;;11.10;9.65;;;;;;;;;;5062752;28;20504;-68
2022/03/14 00:24:18;;;;;;;11.27;9.48;;;;;;;;;;5062600;28;20205;-68
2022/03/14 00:26:44;;;;;;;12.98;9.95;;;;;;;;;;5062698;28;20204;-68
2022/03/14 00:29:10;;;;;;;14.45;10.32;;;;;;;;;;5062839;28;20243;-68
2022/03/14 00:31:38;;;;;;;13.73;9.65;;;;;;;;;;5062782;28;20197;-68
2022/03/14 00:34:05;;;;;;;11.68;9.40;;;;;;;;;;5062757;28;20204;-68
2022/03/14 00:36:31;;;;;;;13.95;9.52;;;;;;;;;;5062356;28;20255;-68
2022/03/14 00:38:57;;;;;;;12.57;10.27;;;;;;;;;;5062443;28;20475;-68
2022/03/14 00:41:23;;;;;;;13.80;10.57;;;;;;;;;;5062632;28;20197;-68
2022/03/14 00:43:50;;;;;;;13.65;9.88;;;;;;;;;;5062576;28;20196;-68
2022/03/14 00:46:16;;;;;;;17.45;11.02;;;;;;;;;;5062274;28;20201;-68
2022/03/14 00:48:44;;;;;;;14.68;11.10;;;;;;;;;;5062396;28;20477;-68
2022/03/14 00:51:10;;;;;;;14.07;10.70;;;;;;;;;;5062298;28;20197;-68
2022/03/14 00:53:37;;;;;;;15.27;11.25;;;;;;;;;;5062118;28;20201;-68
2022/03/14 00:56:05;;;;;;;14.27;11.13;;;;;;;;;;5062051;28;20197;-68
2022/03/14 00:58:33;;;;;;;14.88;10.73;;;;;;;;;;5061261;28;20224;-68
2022/03/14 01:00:59;;;;;;;14.18;10.88;;;;;;;;;;5062317;28;20204;-68
2022/03/14 01:03:25;;;;;;;14.02;10.65;;;;;;;;;;5062114;28;20201;-68
2022/03/14 01:05:53;;;;;;;14.68;10.68;;;;;;;;;;5061938;28;20540;-68
2022/03/14 01:08:19;;;;;;;15.20;10.68;;;;;;;;;;5061946;28;20240;-68
2022/03/14 01:10:47;;;;;;;15.48;10.32;;;;;;;;;;5062272;28;20209;-68
2022/03/14 01:13:14;;;;;;;15.43;11.40;;;;;;;;;;5062221;28;20203;-68
2022/03/14 01:15:40;;;;;;;14.48;10.25;;;;;;;;;;5062138;28;20197;-68
2022/03/14 01:18:06;;;;;;;15.82;10.02;;;;;;;;;;5061845;28;20231;-68
2022/03/14 01:20:33;;;;;;;12.10;9.55;;;;;;;;;;5061961;28;20203;-68
2022/03/14 01:23:01;;;;;;;13.63;10.10;;;;;;;;;;5062202;28;20400;-68
2022/03/14 01:25:27;;;;;;;13.10;10.32;;;;;;;;;;5061799;28;20204;-68
2022/03/14 01:27:54;;;;;;;11.63;8.95;;;;;;;;;;5061689;28;20217;-68
2022/03/14 01:30:21;;;;;;;15.90;10.82;;;;;;;;;;5062012;28;20209;-68
2022/03/14 01:32:47;;;;;;;14.88;9.95;;;;;;;;;;5061838;28;20205;-68
2022/03/14 01:35:13;;;;;;;13.20;9.85;;;;;;;;;;5061804;28;20250;-68
2022/03/14 01:37:40;;;;;;;14.10;10.55;;;;;;;;;;5061756;28;20189;-68
2022/03/14 01:40:08;;;;;;;13.13;10.52;;;;;;;;;;5061916;28;20197;-68
2022/03/14 01:42:34;;;;;;;14.23;10.32;;;;;;;;;;5061971;28;20197;-68
2022/03/14 01:45:01;;;;;;;13.52;9.85;;;;;;;;;;5061826;28;20505;-68
2022/03/14 01:47:28;;;;;;;15.25;10.60;;;;;;;;;;5061484;28;20532;-68
2022/03/14 01:49:54;;;;;;;11.82;9.63;;;;;;;;;;5061984;28;20197;-68
2022/03/14 01:52:21;;;;;;;14.27;10.75;;;;;;;;;;5061809;28;20204;-68
2022/03/14 01:54:48;;;;;;;13.77;10.68;;;;;;;;;;5061820;28;20197;-68
2022/03/14 01:57:16;;;;;;;13.07;9.85;;;;;;;;;;5061504;28;20203;-68
2022/03/14 01:59:42;;;;;;;14.77;10.45;;;;;;;;;;5061747;28;20204;-68
2022/03/14 02:02:09;;;;;;;13.48;10.40;;;;;;;;;;5061661;28;20243;-68
2022/03/14 02:04:36;;;;;;;14.38;10.93;;;;;;;;;;5061732;28;20197;-68
2022/03/14 02:07:03;;;;;;;16.90;11.00;;;;;;;;;;5061415;28;20244;-68
2022/03/14 02:09:30;;;;;;;16.70;10.73;;;;;;;;;;5061949;28;20415;-68
2022/03/14 02:12:06;;;;;;;18.10;11.30;;;;;;;;;;5065303;28;20268;-68
2022/03/14 02:14:36;;;;;;;19.63;11.07;;;;;;;;;;5065260;28;20197;-68
2022/03/14 02:17:02;;;;;;;14.70;10.93;;;;;;;;;;5065099;28;20268;-68
2022/03/14 02:19:29;;;;;;;15.13;11.10;;;;;;;;;;5064998;28;20224;-68
2022/03/14 02:21:56;;;;;;;17.80;11.90;;;;;;;;;;5065035;28;20204;-68
2022/03/14 02:24:22;;;;;;;16.42;11.88;;;;;;;;;;5065057;28;20227;-68
2022/03/14 02:26:49;;;;;;;14.80;11.13;;;;;;;;;;5065186;28;20205;-68
2022/03/14 02:29:15;;;;;;;15.73;11.82;;;;;;;;;;5064691;28;20223;-68
2022/03/14 02:31:42;;;;;;;19.80;12.15;;;;;;;;;;5065066;28;20243;-68
2022/03/14 02:34:08;;;;;;;16.02;12.43;;;;;;;;;;5065034;28;20197;-68
2022/03/14 02:36:38;;;;;;;23.23;13.10;;;;;;;;;;5064724;28;20204;-68
2022/03/14 02:39:06;;;;;;;16.63;13.07;;;;;;;;;;5064932;28;20558;-68
2022/03/14 02:41:32;;;;;;;18.02;12.52;;;;;;;;;;5064788;28;20204;-68
2022/03/14 02:43:58;;;;;;;18.80;13.15;;;;;;;;;;5064086;28;20197;-68
2022/03/14 02:46:25;;;;;;;18.00;13.23;;;;;;;;;;5064372;28;20201;-68
2022/03/14 02:48:51;;;;;;;17.13;13.68;;;;;;;;;;5064558;28;20255;-68
2022/03/14 02:51:17;;;;;;;19.08;13.55;;;;;;;;;;5064486;28;20205;-68
2022/03/14 02:53:44;;;;;;;18.35;12.57;;;;;;;;;;5064362;28;20201;-68
2022/03/14 02:56:11;;;;;;;18.75;13.90;;;;;;;;;;5064423;28;20197;-68
2022/03/14 02:58:41;;;;;;;19.65;14.65;;;;;;;;;;5064268;28;20235;-68
2022/03/14 03:01:08;;;;;;;20.75;13.90;;;;;;;;;;5064344;28;20205;-68
2022/03/14 03:03:35;;;;;;;18.08;14.45;;;;;;;;;;5064137;28;20220;-68
2022/03/14 03:06:02;;;;;;;20.77;13.88;;;;;;;;;;5063932;28;20224;-68
2022/03/14 03:08:28;;;;;;;19.50;14.88;;;;;;;;;;5064403;28;20279;-68
2022/03/14 03:10:57;;;;;;;20.83;15.55;;;;;;;;;;5064383;28;20197;-68
2022/03/14 03:13:27;;;;;;;24.60;16.42;;;;;;;;;;5064315;28;20247;-68
2022/03/14 03:15:54;;;;;;;21.10;15.18;;;;;;;;;;5063990;28;20211;-68
2022/03/14 03:18:21;;;;;;;21.42;16.02;;;;;;;;;;5063856;28;20215;-68
2022/03/14 03:20:47;;;;;;;23.58;17.25;;;;;;;;;;5063419;28;20197;-68
2022/03/14 03:23:14;;;;;;;25.67;18.33;;;;;;;;;;5063662;28;20211;-68
2022/03/14 03:25:40;;;;;;;25.80;17.90;;;;;;;;;;5063754;28;20209;-68
2022/03/14 03:28:06;;;;;;;27.15;17.85;;;;;;;;;;5063452;28;20284;-68
2022/03/14 03:30:34;;;;;;;24.65;17.45;;;;;;;;;;5063741;28;20205;-68
2022/03/14 03:33:00;;;;;;;26.17;18.35;;;;;;;;;;5063783;28;20529;-68
2022/03/14 03:35:26;;;;;;;23.70;17.90;;;;;;;;;;5063611;28;20201;-68
2022/03/14 03:37:53;;;;;;;25.55;17.90;;;;;;;;;;5063617;28;20212;-68
2022/03/14 03:40:19;;;;;;;25.75;17.52;;;;;;;;;;5063808;28;20212;-68
2022/03/14 03:42:45;;;;;;;26.75;18.33;;;;;;;;;;5063596;28;20197;-68
2022/03/14 03:45:13;;;;;;;25.27;18.70;;;;;;;;;;5063604;28;20205;-68
2022/03/14 03:47:41;;;;;;;28.95;18.38;;;;;;;;;;5063089;28;20197;-68
2022/03/14 03:50:08;;;;;;;27.10;18.45;;;;;;;;;;5063447;28;20197;-68
2022/03/14 03:52:34;;;;;;;25.05;18.50;;;;;;;;;;5063537;28;20197;-68
2022/03/14 03:55:00;;;;;;;30.73;19.15;;;;;;;;;;5063363;28;20439;-68
2022/03/14 03:57:26;;;;;;;24.98;18.40;;;;;;;;;;5063212;28;20505;-68
2022/03/14 03:59:53;;;;;;;25.60;19.17;;;;;;;;;;5063339;28;20501;-68
2022/03/14 04:02:19;;;;;;;22.85;17.98;;;;;;;;;;5063058;28;20558;-68
2022/03/14 04:04:48;;;;;;;27.63;19.23;;;;;;;;;;5063013;28;20402;-68
2022/03/14 04:07:18;;;;;;;25.52;19.75;;;;;;;;;;5063023;28;20425;-68
2022/03/14 04:09:45;;;;;;;26.25;18.80;;;;;;;;;;5062938;28;20259;-68
2022/03/14 04:12:11;;;;;;;31.33;21.33;;;;;;;;;;5063005;28;20205;-68
2022/03/14 04:14:37;;;;;;;26.70;19.52;;;;;;;;;;5062997;28;20223;-68
2022/03/14 04:17:04;;;;;;;26.73;19.20;;;;;;;;;;5062624;28;20204;-68
2022/03/14 04:19:32;;;;;;;25.10;19.00;;;;;;;;;;5062964;28;20216;-68
2022/03/14 04:22:00;;;;;;;23.17;18.00;;;;;;;;;;5062927;28;20251;-68
2022/03/14 04:24:26;;;;;;;25.33;19.05;;;;;;;;;;5062758;28;20440;-68
2022/03/14 04:26:52;;;;;;;23.58;17.65;;;;;;;;;;5062557;28;20543;-68
2022/03/14 04:29:18;;;;;;;25.42;18.05;;;;;;;;;;5063063;28;20531;-68
2022/03/14 04:31:45;;;;;;;25.45;18.33;;;;;;;;;;5062553;28;20212;-68
2022/03/14 04:34:11;;;;;;;25.75;18.65;;;;;;;;;;5062557;28;20196;-68
2022/03/14 04:36:37;;;;;;;24.75;18.73;;;;;;;;;;5062521;28;20197;-68
2022/03/14 04:39:05;;;;;;;20.38;16.73;;;;;;;;;;5062532;28;20193;-68
2022/03/14 04:41:35;;;;;;;23.48;16.73;;;;;;;;;;5062483;28;20197;-68
2022/03/14 04:44:02;;;;;;;20.20;14.77;;;;;;;;;;5062356;28;20425;-68
2022/03/14 04:46:28;;;;;;;12.40;10.60;;;;;;;;;;5062525;28;20197;-68
2022/03/14 04:48:54;;;;;;;9.10;6.30;;;;;;;;;;5062652;28;20221;-68
2022/03/14 04:51:21;;;;;;;6.43;5.82;;;;;;;;;;5062918;28;20201;-68
2022/03/14 04:53:47;;;;;;;5.35;4.25;;;;;;;;;;5062436;28;20384;-68
2022/03/14 04:56:15;;;;;;;5.97;4.57;;;;;;;;;;5062567;28;20197;-68
2022/03/14 04:58:41;;;;;;;6.30;4.65;;;;;;;;;;5062213;28;20239;-68
2022/03/14 05:01:07;;;;;;;5.47;5.07;;;;;;;;;;5062470;28;20251;-68
2022/03/14 05:03:34;;;;;;;5.47;4.97;;;;;;;;;;5062446;28;20441;-68
2022/03/14 05:06:01;;;;;;;7.82;5.55;;;;;;;;;;5061815;28;20576;-68
2022/03/14 05:08:27;;;;;;;8.38;5.72;;;;;;;;;;5062027;28;20217;-68
2022/03/14 05:10:53;;;;;;;4.03;3.65;;;;;;;;;;5062145;28;20493;-68
2022/03/14 05:13:21;;;;;;;5.25;4.50;;;;;;;;;;5062114;28;20500;-68
2022/03/14 05:15:47;;;;;;;6.40;5.18;;;;;;;;;;5062251;28;20243;-68
2022/03/14 05:18:13;;;;;;;4.50;4.10;;;;;;;;;;5061932;28;20201;-68
2022/03/14 05:20:40;;;;;;;4.70;4.28;;;;;;;;;;5062242;28;20204;-68
2022/03/14 05:23:07;;;;;;;2.78;2.67;;;;;;;;;;5062101;28;20225;-67
2022/03/14 05:25:33;;;;;;;2.53;2.30;;;;;;;;;;5061880;28;20280;-67
2022/03/14 05:27:59;;;;;;;1.25;1.25;;;;;;;;;;5061820;28;20235;-67
2022/03/14 05:30:27;;;;;;;1.58;0.93;;;;;;;;;;5062028;28;20275;-67
2022/03/14 05:32:53;;;;;;;0.70;0.70;;;;;;;;;;5061856;28;20243;-67
2022/03/14 05:35:20;;;;;;;0.80;0.80;;;;;;;;;;5061960;28;20197;-67
2022/03/14 05:37:47;;;;;;;0.93;0.93;;;;;;;;;;5061670;28;20197;-67
2022/03/14 05:40:15;;;;;;;1.00;0.75;;;;;;;;;;5061859;28;20193;-67
2022/03/14 05:42:42;;;;;;;1.20;1.00;;;;;;;;;;5062174;28;20424;-67
2022/03/14 05:45:09;;;;;;;0.70;0.70;;;;;;;;;;5063455;28;20197;-67
2022/03/14 05:47:36;;;;;;;0.60;0.60;;;;;;;;;;5065591;28;20197;-67
2022/03/14 05:50:03;;;;;;;1.05;0.95;;;;;;;;;;5059982;28;20406;-67
2022/03/14 05:52:29;;;;;;;1.38;1.27;;;;;;;;;;5056284;28;20193;-67
2022/03/14 05:54:56;;;;;;;0.70;0.70;;;;;;;;;;5060681;28;20197;-67
2022/03/14 05:57:22;;;;;;;1.25;1.23;;;;;;;;;;5055924;28;20212;-67
2022/03/14 05:59:48;;;;;;;3.40;1.00;;;;;;;;;;5053557;28;20734;-67
2022/03/14 06:02:19;;;;;;;1.50;0.93;;;;;;;;;;5045550;28;20396;-67
2022/03/14 06:04:46;;;;;;;1.05;0.95;;;;;;;;;;5045675;28;20429;-67
2022/03/14 06:07:13;;;;;;;2.30;0.93;;;;;;;;;;5045234;28;20198;-67
2022/03/14 06:09:39;;;;;;;0.88;0.88;;;;;;;;;;5045107;28;20228;-68
2022/03/14 06:12:06;;;;;;;1.00;1.00;;;;;;;;;;5045468;28;20202;-67
2022/03/14 06:14:32;;;;;;;1.95;1.02;;;;;;;;;;5045297;28;20220;-68
2022/03/14 06:16:58;;;;;;;0.70;0.70;;;;;;;;;;5059390;28;20203;-68
2022/03/14 06:19:25;;;;;;;0.70;0.70;;;;;;;;;;5065172;28;20197;-68
2022/03/14 06:21:52;;;;;;;0.85;0.85;;;;;;;;;;5062386;28;20193;-68
2022/03/14 06:24:19;;;;;;;1.00;1.00;;;;;;;;;;5062136;28;20205;-68
2022/03/14 06:26:45;;;;;;;1.17;1.10;;;;;;;;;;5064982;28;20197;-60
2022/03/14 06:29:13;;;;;;;1.30;1.30;;;;;;;;;;5064924;28;20213;-61
2022/03/14 06:31:39;;;;;;;2.92;1.40;;;;;;;;;;5064938;28;20272;-60
2022/03/14 06:34:05;;;;;;;2.03;1.48;;;;;;;;;;5064888;28;20196;-61
2022/03/14 06:36:32;;;;;;;1.38;1.38;;;;;;;;;;5064433;28;20221;-59
2022/03/14 06:39:00;;;;;;;1.48;1.48;;;;;;;;;;5064978;28;20197;-61
2022/03/14 06:41:27;;;;;;;1.17;1.17;;;;;;;;;;5064678;28;20235;-60
2022/03/14 06:43:54;;;;;;;1.08;1.08;;;;;;;;;;5064640;28;20228;-60
2022/03/14 06:46:20;;;;;;;1.48;1.10;;;;;;;;;;5064445;28;20268;-60
2022/03/14 06:48:46;;;;;;;1.38;0.98;;;;;;;;;;5064550;28;20205;-61
2022/03/14 06:51:13;;;;;;;1.00;1.00;;;;;;;;;;5064569;28;20410;-60
2022/03/14 06:53:40;;;;;;;0.95;0.95;;;;;;;;;;5064517;28;20197;-60
2022/03/14 06:56:07;;;;;;;1.02;1.02;;;;;;;;;;5064377;28;20224;-60
2022/03/14 06:58:34;;;;;;;0.80;0.80;;;;;;;;;;5064389;28;20235;-60
2022/03/14 07:01:00;;;;;;;1.23;1.13;;;;;;;;;;5064483;28;20192;-61
2022/03/14 07:03:27;;;;;;;1.85;1.05;;;;;;;;;;5064248;28;20235;-59
2022/03/14 07:05:53;;;;;;;1.60;1.15;;;;;;;;;;5060426;28;20571;-61
2022/03/14 07:08:20;;;;;;;0.90;0.90;;;;;;;;;;5060328;28;20539;-60
2022/03/14 07:10:46;;;;;;;1.38;1.27;;;;;;;;;;5058109;28;20415;-60
2022/03/14 07:13:13;;;;;;;0.95;0.85;;;;;;;;;;5058675;28;20547;-61
2022/03/14 07:15:40;;;;;;;0.85;0.85;;;;;;;;;;5060368;28;20220;-58
2022/03/14 07:18:07;;;;;;;2.05;1.17;;;;;;;;;;5043518;28;20232;-57
2022/03/14 07:20:33;;;;;;;1.13;1.13;;;;;;;;;;5038591;28;20212;-58
2022/03/14 07:23:00;;;;;;;0.70;0.70;;;;;;;;;;5038579;28;20209;-57
2022/03/14 07:25:28;;;;;;;0.85;0.80;;;;;;;;;;5053593;28;20220;-58
2022/03/14 07:27:54;;;;;;;0.70;0.70;;;;;;;;;;5058521;28;20220;-58
2022/03/14 07:30:22;;;;;;;0.70;0.70;;;;;;;;;;5058659;28;20230;-57
2022/03/14 07:32:49;;;;;;;0.73;0.73;;;;;;;;;;5058140;28;20221;-58
2022/03/14 07:35:15;;;;;;;0.90;0.90;;;;;;;;;;5058637;28;20212;-54
2022/03/14 07:37:42;;;;;;;1.02;1.02;;;;;;;;;;5057855;28;20221;-55
2022/03/14 07:40:09;;;;;;;1.13;0.95;;;;;;;;;;5058563;28;20251;-55
2022/03/14 07:42:39;;;;;;;1.45;0.98;;;;;;;;;;5058692;28;20427;-55
2022/03/14 07:45:06;;;;;;;1.02;1.02;;;;;;;;;;5058107;28;20201;-55
2022/03/14 07:47:33;;;;;;;0.52;0.52;;;;;;;;;;5057352;28;20468;-55
2022/03/14 07:50:00;;;;;;;2.17;0.75;;;;;;;;;;5057965;28;20225;-56
2022/03/14 07:52:26;;;;;;;0.98;0.98;;;;;;;;;;5058288;28;20205;-55
2022/03/14 07:54:52;;;;;;;1.20;0.90;;;;;;;;;;5058212;28;20235;-56
2022/03/14 07:57:18;;;;;;;1.77;0.70;;;;;;;;;;5057440;28;20209;-55
2022/03/14 07:59:46;;;;;;;0.52;0.52;;;;;;;;;;5058000;28;20251;-56
2022/03/14 08:02:12;;;;;;;0.60;0.60;;;;;;;;;;5057709;28;20209;-55
2022/03/14 08:04:40;;;;;;;0.80;0.80;;;;;;;;;;5057949;28;20209;-55
2022/03/14 08:07:06;;;;;;;0.70;0.50;;;;;;;;;;5056986;28;20213;-56
2022/03/14 08:09:33;;;;;;;0.52;0.52;;;;;;;;;;5076267;28;20228;-55
2022/03/14 08:12:00;;;;;;;0.55;0.47;;;;;;;;;;5077887;28;20246;-56
2022/03/14 08:14:27;;;;;;;0.80;0.80;;;;;;;;;;5077432;28;20215;-55
2022/03/14 08:16:53;;;;;;;2.20;0.77;;;;;;;;;;5077684;28;20212;-55
2022/03/14 08:19:20;;;;;;;0.73;0.73;;;;;;;;;;5077387;28;20208;-56
2022/03/14 08:21:48;;;;;;;0.82;0.60;;;;;;;;;;5076901;28;20209;-54
2022/03/14 08:24:14;;;;;;;2.10;0.70;;;;;;;;;;5076879;28;20262;-55
2022/03/14 08:26:41;;;;;;;2.30;0.73;;;;;;;;;;5076462;28;20200;-56
2022/03/14 08:29:08;;;;;;;3.65;0.77;;;;;;;;;;5064219;28;20216;-56
2022/03/14 08:31:34;;;;;;;2.75;0.55;;;;;;;;;;5056563;28;20251;-56
2022/03/14 08:34:01;;;;;;;2.30;0.75;;;;;;;;;;5056564;28;20213;-56
2022/03/14 08:36:27;;;;;;;4.00;0.77;;;;;;;;;;5056434;28;20204;-55
2022/03/14 08:38:55;;;;;;;1.73;0.80;;;;;;;;;;5056796;28;20565;-55
2022/03/14 08:41:22;;;;;;;0.60;0.60;;;;;;;;;;5056381;28;20600;-58
2022/03/14 08:43:48;;;;;;;1.35;0.95;;;;;;;;;;5056364;28;20302;-56
2022/03/14 08:46:15;;;;;;;1.38;0.93;;;;;;;;;;5055610;28;20211;-56
2022/03/14 08:48:42;;;;;;;3.20;0.88;;;;;;;;;;5055736;28;20215;-57
2022/03/14 08:51:08;;;;;;;1.23;0.60;;;;;;;;;;5056054;28;20247;-56
2022/03/14 08:53:35;;;;;;;1.58;0.90;;;;;;;;;;5056182;28;20228;-57
2022/03/14 08:56:03;;;;;;;0.82;0.80;;;;;;;;;;5055821;28;20209;-55
2022/03/14 08:58:29;;;;;;;3.00;0.77;;;;;;;;;;5056079;28;20422;-56
2022/03/14 09:00:58;;;;;;;1.83;0.57;;;;;;;;;;5055647;28;20205;-57
2022/03/14 09:03:25;;;;;;;2.20;0.80;;;;;;;;;;5055811;28;20398;-57
2022/03/14 09:05:51;;;;;;;1.35;0.70;;;;;;;;;;5056151;28;20607;-57
2022/03/14 09:08:18;;;;;;;1.75;0.57;;;;;;;;;;5055850;28;20255;-56
2022/03/14 09:10:46;;;;;;;1.00;1.00;;;;;;;;;;5055939;28;20262;-56
2022/03/14 09:13:14;;;;;;;2.38;0.63;;;;;;;;;;5056425;28;20209;-56
2022/03/14 09:15:40;;;;;;;2.85;0.60;;;;;;;;;;5056441;28;20209;-56
2022/03/14 09:18:07;;;;;;;0.70;0.70;;;;;;;;;;5055730;28;20211;-57
2022/03/14 09:20:34;;;;;;;2.20;0.80;;;;;;;;;;5058490;28;20251;-55
2022/03/14 09:23:01;;;;;;;1.17;0.98;;;;;;;;;;5060480;28;20446;-57
2022/03/14 09:25:27;;;;;;;4.80;0.93;;;;;;;;;;5059731;28;20509;-56
2022/03/14 09:27:54;;;;;;;2.45;0.80;;;;;;;;;;5059956;28;20212;-55
2022/03/14 09:30:22;;;;;;;2.05;0.68;;;;;;;;;;5060634;28;20278;-55
2022/03/14 09:32:49;;;;;;;5.55;1.10;;;;;;;;;;5060596;28;20216;-54
2022/03/14 09:35:15;;;;;;;5.82;0.80;;;;;;;;;;5060612;28;20240;-55
2022/03/14 09:37:42;;;;;;;1.70;0.98;;;;;;;;;;5059584;28;20255;-56
2022/03/14 09:40:10;;;;;;;2.50;0.93;;;;;;;;;;5059964;28;20275;-58
2022/03/14 09:42:37;;;;;;;3.20;0.98;;;;;;;;;;5060635;28;20411;-56
2022/03/14 09:45:04;;;;;;;3.58;0.82;;;;;;;;;;5060895;28;20276;-55
2022/03/14 09:47:35;;;;;;;1.55;0.63;;;;;;;;;;5060224;28;20209;-55
2022/03/14 09:50:02;;;;;;;2.50;0.90;;;;;;;;;;5060689;28;20272;-56
2022/03/14 09:52:29;;;;;;;4.63;1.15;;;;;;;;;;5060111;28;20216;-56
2022/03/14 09:54:57;;;;;;;4.28;0.75;;;;;;;;;;5060571;28;20582;-55
2022/03/14 09:57:24;;;;;;;4.60;1.50;;;;;;;;;;5059924;28;20216;-55
2022/03/14 09:59:50;;;;;;;4.15;1.00;;;;;;;;;;5060372;28;20255;-55
2022/03/14 10:02:16;;;;;;;2.00;0.93;;;;;;;;;;5060310;28;20216;-57
2022/03/14 10:04:44;;;;;;;3.05;1.08;;;;;;;;;;5060275;28;20319;-56
2022/03/14 10:07:10;;;;;;;2.97;1.20;;;;;;;;;;5059469;28;20263;-57
2022/03/14 10:09:37;;;;;;;7.13;1.10;;;;;;;;;;5059728;28;20247;-56
2022/03/14 10:12:04;;;;;;;3.22;1.20;;;;;;;;;;5060052;28;20558;-56
2022/03/14 10:14:30;;;;;;;3.13;0.93;;;;;;;;;;5059787;28;20205;-56
2022/03/14 10:16:56;;;;;;;2.40;1.10;;;;;;;;;;5059843;28;20209;-56
2022/03/14 10:19:29;;;;;;;2.05;0.90;;;;;;;;;;5059412;28;20208;-56
2022/03/14 10:21:57;;;;;;;2.15;1.00;;;;;;;;;;5060230;28;20224;-57
2022/03/14 10:24:24;;;;;;;4.75;1.00;;;;;;;;;;5073150;28;20432;-57
2022/03/14 10:26:50;;;;;;;2.55;0.63;;;;;;;;;;5079263;28;20215;-56
2022/03/14 10:29:18;;;;;;;2.75;0.90;;;;;;;;;;5079827;28;20208;-56
2022/03/14 10:31:46;;;;;;;1.13;0.90;;;;;;;;;;5079010;28;20600;-55
2022/03/14 10:34:14;;;;;;;1.25;0.80;;;;;;;;;;5079495;28;20520;-56
2022/03/14 10:36:45;;;;;;;2.25;0.70;;;;;;;;;;5078789;28;20212;-56
2022/03/14 10:39:16;;;;;;;16.25;1.85;;;;;;;;;;5072309;28;20527;-55
2022/03/14 10:41:44;;;;;;;4.47;1.02;;;;;;;;;;5078914;28;20511;-57
2022/03/14 10:44:22;;;;;;;1.95;0.90;;;;;;;;;;5079338;28;20577;-56
2022/03/14 10:46:48;;;;;;;4.22;0.80;;;;;;;;;;5078516;28;20441;-56
2022/03/14 10:49:16;;;;;;;1.65;0.80;;;;;;;;;;5079425;28;20208;-56
2022/03/14 10:51:52;;;;;;;3.58;1.05;;;;;;;;;;5079301;28;20228;-56
2022/03/14 10:54:20;;;;;;;2.25;0.73;;;;;;;;;;5079169;28;20468;-56
2022/03/14 10:57:00;;;;;;;2.60;0.80;;;;;;;;;;5079014;28;20212;-56
2022/03/14 10:59:32;;;;;;;0.77;0.75;;;;;;;;;;5079174;28;20439;-56
2022/03/14 11:01:58;;;;;;;1.50;0.90;;;;;;;;;;5064288;28;20243;-56
2022/03/14 11:04:26;;;;;;;3.15;0.85;;;;;;;;;;5058803;28;20208;-56
2022/03/14 11:06:58;;;;;;;2.67;0.88;;;;;;;;;;5058015;28;20429;-56
2022/03/14 11:09:37;;;;;;;2.17;1.15;;;;;;;;;;5058439;28;20209;-56
2022/03/14 11:12:08;;;;;;;1.23;0.60;;;;;;;;;;5058977;28;20236;-57
2022/03/14 11:14:34;;;;;;;1.88;0.98;;;;;;;;;;5058883;28;20216;-57
2022/03/14 11:17:11;;;;;;;3.63;0.80;;;;;;;;;;5058314;28;20213;-57
2022/03/14 11:19:38;;;;;;;1.30;0.75;;;;;;;;;;5058628;28;20201;-56
2022/03/14 11:22:04;;;;;;;3.17;0.90;;;;;;;;;;5058597;28;20586;-56
2022/03/14 11:24:31;;;;;;;2.75;1.30;;;;;;;;;;5058602;28;20263;-56
2022/03/14 11:26:59;;;;;;;4.50;1.17;;;;;;;;;;5058734;28;20217;-57
2022/03/14 11:29:28;;;;;;;3.45;1.13;;;;;;;;;;5061369;28;20451;-57
2022/03/14 11:31:55;;;;;;;3.28;1.00;;;;;;;;;;5061164;28;20282;-56
2022/03/14 11:34:26;;;;;;;3.25;1.10;;;;;;;;;;5061189;28;20212;-56
2022/03/14 11:36:52;;;;;;;3.55;1.27;;;;;;;;;;5061231;28;20244;-57
2022/03/14 11:39:19;;;;;;;1.60;0.65;;;;;;;;;;5061259;28;20201;-57
2022/03/14 11:41:45;;;;;;;2.00;0.77;;;;;;;;;;5061237;28;20251;-58
2022/03/14 11:44:13;;;;;;;2.55;0.98;;;;;;;;;;5060661;28;20205;-56
2022/03/14 11:46:40;;;;;;;1.95;0.80;;;;;;;;;;5060783;28;20205;-57
2022/03/14 11:49:10;;;;;;;2.25;0.73;;;;;;;;;;5060849;28;20209;-57
2022/03/14 11:51:38;;;;;;;0.52;0.52;;;;;;;;;;5060891;28;20257;-57
2022/03/14 11:54:09;;;;;;;3.63;0.80;;;;;;;;;;5061158;28;20205;-56
2022/03/14 11:56:37;;;;;;;0.95;0.60;;;;;;;;;;5060773;28;20212;-56
2022/03/14 11:59:07;;;;;;;4.47;0.93;;;;;;;;;;5061189;28;20276;-57
2022/03/14 12:01:46;;;;;;;3.42;1.00;;;;;;;;;;5060401;28;20525;-57
2022/03/14 12:04:26;;;;;;;1.60;0.80;;;;;;;;;;5060675;28;20531;-56
2022/03/14 12:07:09;;;;;;;2.20;0.60;;;;;;;;;;5060282;28;20231;-56
2022/03/14 12:09:45;;;;;;;2.88;0.60;;;;;;;;;;5060342;28;20536;-57
2022/03/14 12:12:28;;;;;;;2.15;0.85;;;;;;;;;;5060217;28;20247;-56
2022/03/14 12:14:58;;;;;;;2.92;1.08;;;;;;;;;;5060428;28;20235;-57
2022/03/14 12:17:26;;;;;;;2.75;0.90;;;;;;;;;;5060391;28;20478;-57
2022/03/14 12:19:54;;;;;;;1.13;0.70;;;;;;;;;;5060372;28;20259;-57
2022/03/14 12:22:35;;;;;;;1.52;0.80;;;;;;;;;;5060084;28;20201;-57
2022/03/14 12:25:02;;;;;;;0.63;0.63;;;;;;;;;;5060027;28;20256;-57
2022/03/14 12:27:30;;;;;;;2.35;0.85;;;;;;;;;;5060082;28;20444;-56
2022/03/14 12:29:58;;;;;;;2.60;0.98;;;;;;;;;;5060295;28;20446;-56
2022/03/14 12:32:28;;;;;;;6.47;1.05;;;;;;;;;;5060701;28;20296;-57
2022/03/14 12:35:01;;;;;;;4.28;0.90;;;;;;;;;;5059708;28;20209;-55
2022/03/14 12:37:35;;;;;;;0.85;0.65;;;;;;;;;;5059753;28;20205;-57
2022/03/14 12:40:01;;;;;;;4.30;0.98;;;;;;;;;;5060184;28;20215;-57
2022/03/14 12:42:27;;;;;;;5.28;1.05;;;;;;;;;;5059995;28;20239;-57
2022/03/14 12:45:12;;;;;;;2.47;0.60;;;;;;;;;;5059843;28;20527;-57
2022/03/14 12:47:41;;;;;;;2.03;0.63;;;;;;;;;;5059802;28;20205;-57
2022/03/14 12:50:09;;;;;;;4.32;0.95;;;;;;;;;;5060148;28;20532;-57
2022/03/14 12:52:59;;;;;;;2.83;0.88;;;;;;;;;;5060044;28;20286;-58
2022/03/14 12:55:25;;;;;;;1.85;0.70;;;;;;;;;;5059499;28;20319;-57
2022/03/14 12:57:52;;;;;;;3.13;1.13;;;;;;;;;;5059715;28;20205;-57
2022/03/14 13:00:18;;;;;;;0.68;0.60;;;;;;;;;;5059839;28;20505;-57
2022/03/14 13:02:47;;;;;;;1.55;0.80;;;;;;;;;;5059922;28;20423;-57
2022/03/14 13:05:18;;;;;;;1.35;1.10;;;;;;;;;;5059545;28;20271;-56
2022/03/14 13:07:45;;;;;;;1.88;1.00;;;;;;;;;;5059269;28;20201;-58
2022/03/14 13:10:11;;;;;;;3.00;0.85;;;;;;;;;;5059521;28;20201;-57
2022/03/14 13:12:37;;;;;;;1.10;0.45;;;;;;;;;;5059528;28;20591;-58
2022/03/14 13:15:04;;;;;;;2.35;0.82;;;;;;;;;;5059760;28;20205;-56
2022/03/14 13:17:31;;;;;;;2.05;0.52;;;;;;;;;;5059178;28;20426;-58
2022/03/14 13:19:58;;;;;;;1.05;0.95;;;;;;;;;;5059736;28;20437;-57
2022/03/14 13:22:24;;;;;;;1.10;0.75;;;;;;;;;;5059442;28;20205;-57
2022/03/14 13:24:53;;;;;;;2.28;0.85;;;;;;;;;;5059056;28;20247;-57
2022/03/14 13:27:22;;;;;;;4.05;1.00;;;;;;;;;;5058937;28;20599;-56
2022/03/14 13:29:49;;;;;;;3.10;1.00;;;;;;;;;;5059264;28;20205;-57
2022/03/14 13:32:16;;;;;;;1.00;0.70;;;;;;;;;;5059575;28;20228;-56
2022/03/14 13:34:42;;;;;;;20.25;1.65;;;;;;;;;;5059243;28;20100;-67
2022/03/14 13:37:11;;;;;;;4.13;1.08;;;;;;;;;;5058926;28;20204;-66
2022/03/14 13:39:37;;;;;;;3.75;1.05;;;;;;;;;;5059228;28;20204;-66
2022/03/14 13:42:05;;;;;;;2.88;0.90;;;;;;;;;;5059502;28;20288;-66
2022/03/14 13:44:31;;;;;;;1.40;0.65;;;;;;;;;;5059339;28;20213;-66
2022/03/14 13:46:58;;;;;;;15.45;1.92;;;;;;;;;;5059494;28;20462;-67
2022/03/14 13:49:25;;;;;;;2.45;0.73;;;;;;;;;;5059115;28;20280;-66
2022/03/14 13:51:52;;;;;;;4.10;0.98;;;;;;;;;;5058911;28;20229;-67
2022/03/14 13:54:22;;;;;;;4.13;0.75;;;;;;;;;;5059060;28;20201;-67
2022/03/14 13:56:49;;;;;;;1.98;1.05;;;;;;;;;;5058750;28;20209;-66
2022/03/14 13:59:31;;;;;;;2.75;0.82;;;;;;;;;;5059418;28;20503;-67
2022/03/14 14:01:58;;;;;;;3.97;1.55;;;;;;;;;;5059730;28;20415;-67
2022/03/14 14:04:25;;;;;;;4.35;1.73;;;;;;;;;;5058959;28;20267;-67
2022/03/14 14:06:52;;;;;;;5.15;1.15;;;;;;;;;;5061650;28;20496;-67
2022/03/14 14:09:21;;;;;;;2.83;0.93;;;;;;;;;;5063034;28;20228;-67
2022/03/14 14:12:05;;;;;;;2.38;0.80;;;;;;;;;;5060770;28;20236;-67
2022/03/14 14:14:32;;;;;;;6.68;1.17;;;;;;;;;;5060275;28;20554;-67
2022/03/14 14:17:08;;;;;;;1.15;0.80;;;;;;;;;;5059260;28;20652;-67
2022/03/14 14:19:34;;;;;;;3.05;1.08;;;;;;;;;;5060054;28;20475;-67
2022/03/14 14:22:00;;;;;;;3.42;1.00;;;;;;;;;;5060113;28;20204;-68
2022/03/14 14:24:29;;;;;;;1.50;0.80;;;;;;;;;;5059672;28;20224;-67
2022/03/14 14:26:55;;;;;;;4.13;1.08;;;;;;;;;;5059064;28;20551;-67
2022/03/14 14:29:40;;;;;;;5.20;0.80;;;;;;;;;;5059521;28;20439;-67
2022/03/14 14:32:13;;;;;;;2.30;0.90;;;;;;;;;;5059325;28;20271;-67
2022/03/14 14:34:39;;;;;;;2.72;0.73;;;;;;;;;;5059744;28;20209;-67
2022/03/14 14:37:06;;;;;;;3.03;0.80;;;;;;;;;;5059328;28;20284;-67
2022/03/14 14:39:35;;;;;;;5.47;1.17;;;;;;;;;;5059606;28;20237;-67